Time;durP1;ratioP1;P1;durP2;ratioP2;P2;SDS_P1;SDS_P2;PMS_P1;PMS_P2;Temp;Humidity;BMP_temperature;BMP_pressure;BME280_temperature;BME280_humidity;BME280_pressure;Samples;Min_cycle;Max_cycle;Signal;HPM_P1;HPM_P2
2022/08/13 00:00:59;;;;;;;2.83;1.25;;;21.20;97.90;;;;;;5011354;28;20052;-77
2022/08/13 00:03:28;;;;;;;2.28;1.38;;;21.20;97.90;;;;;;5009667;28;20053;-76
2022/08/13 00:06:15;;;;;;;3.50;1.00;;;21.10;98.00;;;;;;5011201;28;20515;-77
2022/08/13 00:08:54;;;;;;;5.95;1.33;;;21.10;98.00;;;;;;5011479;28;20141;-77
2022/08/13 00:14:31;;;;;;;2.95;1.05;;;20.80;98.00;;;;;;5009409;28;20100;-76
2022/08/13 00:17:04;;;;;;;1.77;0.80;;;20.70;98.90;;;;;;5011353;28;20136;-77
2022/08/13 00:19:34;;;;;;;2.03;0.70;;;20.70;98.80;;;;;;5011081;28;20136;-76
2022/08/13 00:22:02;;;;;;;3.33;1.20;;;20.70;98.60;;;;;;5011390;28;20496;-76
2022/08/13 00:24:49;;;;;;;1.05;0.75;;;20.70;98.90;;;;;;5010682;28;20537;-77
2022/08/13 00:27:21;;;;;;;1.27;0.90;;;20.70;99.00;;;;;;5011425;28;20045;-77
2022/08/13 00:29:54;;;;;;;3.40;0.90;;;20.60;99.10;;;;;;5010235;28;20510;-76
2022/08/13 00:32:31;;;;;;;1.00;0.52;;;20.70;98.90;;;;;;5011336;28;20050;-77
2022/08/13 00:35:00;;;;;;;2.28;0.88;;;20.70;98.80;;;;;;5009453;28;20189;-77
2022/08/13 00:37:28;;;;;;;5.15;1.23;;;20.70;99.00;;;;;;5011205;28;20115;-76
2022/08/13 00:40:17;;;;;;;4.90;1.08;;;20.70;98.90;;;;;;5010995;28;20049;-76
2022/08/13 00:43:03;;;;;;;2.35;1.05;;;20.70;98.90;;;;;;5010714;28;20058;-77
2022/08/13 00:45:32;;;;;;;7.15;0.82;;;20.70;99.40;;;;;;5009564;28;20050;-76
2022/08/13 00:50:50;;;;;;;5.07;0.95;;;20.80;99.00;;;;;;5011620;28;20088;-76
2022/08/13 00:53:19;;;;;;;2.42;0.90;;;20.70;98.80;;;;;;5012742;28;20458;-76
2022/08/13 00:55:52;;;;;;;1.60;0.85;;;20.70;99.30;;;;;;5013187;28;20050;-76
2022/08/13 00:58:20;;;;;;;1.10;0.70;;;20.70;99.40;;;;;;5012689;28;20138;-77
2022/08/13 01:00:58;;;;;;;1.40;0.82;;;20.60;99.10;;;;;;5014642;28;20056;-77
2022/08/13 01:03:29;;;;;;;4.53;0.80;;;20.60;99.20;;;;;;5013499;28;20050;-77
2022/08/13 01:06:18;;;;;;;3.88;0.75;;;20.60;99.40;;;;;;5013956;28;20061;-76
2022/08/13 01:08:48;;;;;;;7.05;0.88;;;20.50;99.10;;;;;;5014439;28;20049;-76
2022/08/13 01:11:27;;;;;;;1.20;0.80;;;20.50;99.20;;;;;;5012828;28;20574;-76
2022/08/13 01:13:58;;;;;;;4.32;0.88;;;20.50;99.50;;;;;;5012711;28;20046;-76
2022/08/13 01:16:28;;;;;;;7.22;0.90;;;20.50;99.40;;;;;;5012436;28;20050;-77
2022/08/13 01:18:54;;;;;;;2.83;0.90;;;20.50;99.50;;;;;;5014302;28;20096;-77
2022/08/13 01:21:24;;;;;;;3.47;1.27;;;20.50;99.40;;;;;;5014124;28;20467;-76
2022/08/13 01:24:11;;;;;;;1.88;0.75;;;20.40;99.90;;;;;;5013866;28;20512;-77
2022/08/13 01:26:40;;;;;;;3.97;1.15;;;20.40;99.80;;;;;;5014313;28;20447;-76
2022/08/13 01:29:16;;;;;;;1.20;0.80;;;20.40;99.90;;;;;;5012090;28;20049;-76
2022/08/13 01:31:44;;;;;;;2.85;0.80;;;20.40;99.90;;;;;;5013902;28;20065;-77
2022/08/13 01:34:13;;;;;;;1.77;0.70;;;20.30;99.90;;;;;;5013955;28;20049;-76
2022/08/13 01:36:55;;;;;;;1.13;0.85;;;20.30;99.80;;;;;;5013084;28;20096;-77
2022/08/13 01:39:25;;;;;;;2.40;0.85;;;20.30;99.90;;;;;;5013637;28;20050;-76
2022/08/13 01:42:02;;;;;;;1.80;1.27;;;20.30;99.90;;;;;;5011906;28;20152;-77
2022/08/13 01:44:32;;;;;;;1.05;0.82;;;20.10;99.90;;;;;;5013723;28;20120;-77
2022/08/13 01:50:31;;;;;;;0.82;0.70;;;20.10;99.90;;;;;;5011748;28;20400;-76
2022/08/13 01:53:03;;;;;;;2.33;0.85;;;20.00;99.90;;;;;;5011232;28;20053;-76
2022/08/13 01:55:38;;;;;;;1.27;0.80;;;20.00;99.90;;;;;;5013460;28;20049;-76
2022/08/13 01:58:29;;;;;;;1.80;0.93;;;20.00;99.90;;;;;;5013385;28;20082;-76
2022/08/13 02:01:01;;;;;;;1.23;0.80;;;20.00;99.90;;;;;;5013125;28;20054;-76
2022/08/13 02:03:36;;;;;;;0.85;0.77;;;20.00;99.90;;;;;;5011677;28;20392;-77
2022/08/13 02:06:03;;;;;;;1.88;0.90;;;19.90;99.90;;;;;;5013477;28;20491;-76
2022/08/13 02:08:52;;;;;;;1.02;0.77;;;19.90;99.90;;;;;;5012793;28;20049;-76
2022/08/13 02:11:19;;;;;;;3.58;1.10;;;19.90;99.90;;;;;;5011216;28;20052;-77
2022/08/13 02:13:55;;;;;;;5.45;1.13;;;19.90;99.90;;;;;;5013035;28;20480;-76
2022/08/13 02:16:28;;;;;;;0.98;0.80;;;19.90;99.90;;;;;;5011681;28;20050;-76
2022/08/13 02:18:59;;;;;;;3.80;0.60;;;19.80;99.90;;;;;;5012808;28;20164;-76
2022/08/13 02:21:31;;;;;;;1.92;0.80;;;19.70;99.90;;;;;;5013251;28;20084;-76
2022/08/13 02:24:13;;;;;;;0.75;0.75;;;19.80;99.90;;;;;;5013322;28;20466;-77
2022/08/13 02:26:44;;;;;;;1.85;0.90;;;19.80;99.90;;;;;;5013145;28;20050;-76
2022/08/13 02:29:22;;;;;;;0.70;0.70;;;19.80;99.90;;;;;;5012957;28;20126;-77
2022/08/13 02:31:50;;;;;;;3.38;0.82;;;19.70;99.90;;;;;;5009969;28;20125;-76
2022/08/13 02:34:39;;;;;;;4.22;1.20;;;19.80;99.90;;;;;;5012972;28;20076;-76
2022/08/13 02:37:07;;;;;;;2.40;0.88;;;19.80;99.90;;;;;;5013101;28;20057;-76
2022/08/13 02:39:54;;;;;;;0.88;0.60;;;19.80;99.90;;;;;;5011843;28;20258;-77
2022/08/13 02:42:22;;;;;;;2.40;0.90;;;19.70;99.90;;;;;;5009462;28;20050;-76
2022/08/13 02:44:50;;;;;;;1.70;1.00;;;19.80;99.90;;;;;;5012745;28;20567;-76
2022/08/13 02:47:19;;;;;;;1.30;0.80;;;19.70;99.90;;;;;;5012426;28;20156;-76
2022/08/13 02:50:07;;;;;;;1.83;0.80;;;19.70;99.90;;;;;;5012656;28;20060;-76
2022/08/13 02:52:37;;;;;;;1.35;0.90;;;19.50;99.90;;;;;;5012317;28;20100;-76
2022/08/13 02:55:16;;;;;;;2.10;0.80;;;19.50;99.90;;;;;;5012465;28;20072;-76
2022/08/13 02:57:43;;;;;;;3.75;1.23;;;19.60;99.90;;;;;;5012751;28;20060;-76
2022/08/13 03:00:15;;;;;;;3.67;1.05;;;19.50;99.90;;;;;;5009337;28;20427;-76
2022/08/13 03:02:44;;;;;;;1.58;1.00;;;19.50;99.90;;;;;;5012257;28;20053;-76
2022/08/13 03:05:13;;;;;;;;;;;19.50;99.90;;;;;;5012703;28;20534;-77
2022/08/13 03:07:47;;;;;;;2.17;0.88;;;19.50;99.90;;;;;;5012532;28;19933;-76
2022/08/13 03:10:23;;;;;;;2.20;1.17;;;19.40;99.90;;;;;;5009448;28;20081;-76
2022/08/13 03:13:19;;;;;;;1.63;0.80;;;19.40;99.90;;;;;;5011935;28;20519;-77
2022/08/13 03:15:53;;;;;;;3.20;1.02;;;19.40;99.90;;;;;;5011566;28;20072;-76
2022/08/13 03:18:30;;;;;;;1.42;0.88;;;19.30;99.90;;;;;;5012084;28;20124;-76
2022/08/13 03:21:23;;;;;;;1.38;0.80;;;19.30;99.90;;;;;;5011833;28;20545;-76
2022/08/13 03:24:21;;;;;;;0.85;0.70;;;19.30;99.90;;;;;;5011895;28;20057;-76
2022/08/13 03:27:00;;;;;;;1.77;0.80;;;19.30;99.90;;;;;;5012020;28;20052;-76
2022/08/13 03:29:28;;;;;;;1.85;0.73;;;19.20;99.90;;;;;;5011384;28;20104;-76
2022/08/13 03:32:16;;;;;;;3.15;0.82;;;19.20;99.90;;;;;;5011747;28;20046;-76
2022/08/13 03:34:44;;;;;;;4.10;0.93;;;19.10;99.90;;;;;;5012115;28;20046;-76
2022/08/13 03:37:11;;;;;;;4.53;0.80;;;19.10;99.90;;;;;;5011984;28;20054;-76
2022/08/13 03:39:41;;;;;;;1.27;0.68;;;19.00;99.90;;;;;;5011636;28;20531;-76
2022/08/13 03:42:09;;;;;;;2.70;1.02;;;19.00;99.90;;;;;;5011973;28;20046;-75
2022/08/13 03:44:39;;;;;;;1.45;0.88;;;18.90;99.90;;;;;;5009038;28;20046;-75
2022/08/13 03:47:06;;;;;;;1.27;0.70;;;18.90;99.90;;;;;;5011432;28;20077;-75
2022/08/13 03:49:53;;;;;;;1.25;0.75;;;18.90;99.90;;;;;;5011212;28;20054;-75
2022/08/13 03:52:20;;;;;;;3.03;1.02;;;18.90;99.90;;;;;;5011321;28;20488;-74
2022/08/13 03:55:00;;;;;;;3.38;0.95;;;18.80;99.90;;;;;;5011861;28;20096;-77
2022/08/13 03:57:28;;;;;;;2.80;0.80;;;18.90;99.90;;;;;;5009200;28;20050;-75
2022/08/13 03:59:55;;;;;;;3.30;0.82;;;18.90;99.90;;;;;;5011130;28;20136;-76
2022/08/13 04:02:40;;;;;;;;;;;18.90;99.90;;;;;;5010123;28;20566;-74
2022/08/13 04:05:16;;;;;;;1.00;0.90;;;18.80;99.90;;;;;;5010849;28;20375;-75
2022/08/13 04:08:03;;;;;;;0.98;0.85;;;18.70;99.90;;;;;;5011126;28;20046;-75
2022/08/13 04:10:35;;;;;;;2.67;0.88;;;18.70;99.90;;;;;;5010152;28;20049;-75
2022/08/13 04:13:03;;;;;;;8.35;1.20;;;18.70;99.90;;;;;;5011265;28;20084;-75
2022/08/13 04:15:46;;;;;;;5.13;1.48;;;18.70;99.90;;;;;;5010826;28;20053;-75
2022/08/13 04:18:13;;;;;;;1.13;0.80;;;18.70;99.90;;;;;;5011150;28;20575;-75
2022/08/13 04:20:43;;;;;;;0.60;0.60;;;18.70;99.90;;;;;;5010209;28;20141;-75
2022/08/13 04:23:16;;;;;;;1.70;0.95;;;18.60;99.90;;;;;;5011316;28;20088;-74
2022/08/13 04:25:44;;;;;;;1.73;0.63;;;18.50;99.90;;;;;;5012621;28;20052;-76
2022/08/13 04:28:12;;;;;;;5.25;0.85;;;18.50;99.90;;;;;;5015044;28;20073;-75
2022/08/13 04:30:41;;;;;;;4.72;1.17;;;18.50;99.90;;;;;;5015174;28;20054;-75
2022/08/13 04:33:11;;;;;;;2.63;0.90;;;18.40;99.90;;;;;;5015258;28;20480;-75
2022/08/13 04:35:49;;;;;;;3.35;0.90;;;18.50;99.90;;;;;;5014289;28;20516;-75
2022/08/13 04:38:24;;;;;;;2.20;0.98;;;18.50;99.90;;;;;;5014759;28;20060;-75
2022/08/13 04:40:52;;;;;;;2.00;0.73;;;18.50;99.90;;;;;;5015076;28;20088;-75
2022/08/13 04:43:24;;;;;;;2.65;0.80;;;18.40;99.90;;;;;;5015205;28;20423;-75
2022/08/13 04:45:51;;;;;;;2.88;1.00;;;18.30;99.90;;;;;;5014866;28;20137;-75
2022/08/13 04:48:18;;;;;;;1.75;0.93;;;18.40;99.90;;;;;;5014679;28;20132;-75
2022/08/13 04:50:47;;;;;;;1.90;1.10;;;18.30;99.90;;;;;;5014888;28;20639;-75
2022/08/13 04:53:30;;;;;;;1.80;0.97;;;18.30;99.90;;;;;;5014732;28;20104;-75
2022/08/13 04:55:58;;;;;;;2.05;0.82;;;18.30;99.90;;;;;;5013872;28;20046;-76
2022/08/13 04:58:45;;;;;;;1.20;0.93;;;18.30;99.90;;;;;;5013943;28;20077;-76
2022/08/13 05:01:12;;;;;;;2.72;0.98;;;18.20;99.90;;;;;;5014731;28;20077;-76
2022/08/13 05:03:59;;;;;;;3.92;0.90;;;18.20;99.90;;;;;;5016899;28;20046;-76
2022/08/13 05:06:46;;;;;;;1.63;0.90;;;18.20;99.90;;;;;;5016844;28;20136;-76
2022/08/13 05:09:18;;;;;;;3.53;1.05;;;18.30;99.90;;;;;;5014576;28;20046;-76
2022/08/13 05:11:45;;;;;;;2.63;1.10;;;18.40;99.90;;;;;;5014741;28;20041;-76
2022/08/13 05:14:32;;;;;;;1.70;0.95;;;18.40;99.90;;;;;;5013924;28;20104;-76
2022/08/13 05:17:00;;;;;;;2.85;0.85;;;18.50;99.90;;;;;;5014452;28;20049;-76
2022/08/13 05:19:27;;;;;;;2.15;0.90;;;18.40;99.90;;;;;;5012927;28;20050;-76
2022/08/13 05:22:04;;;;;;;1.88;1.00;;;18.50;99.90;;;;;;5013622;28;20067;-76
2022/08/13 05:24:32;;;;;;;4.32;1.02;;;18.60;99.90;;;;;;5014085;28;20496;-76
2022/08/13 05:27:19;;;;;;;1.25;0.90;;;18.60;99.90;;;;;;5013451;28;20049;-76
2022/08/13 05:29:48;;;;;;;3.85;1.13;;;18.60;99.90;;;;;;5014057;28;20046;-76
2022/08/13 05:32:38;;;;;;;3.60;0.80;;;18.70;99.90;;;;;;5012763;28;20054;-76
2022/08/13 05:35:11;;;;;;;2.85;1.00;;;18.70;99.90;;;;;;5014230;28;20046;-76
2022/08/13 05:37:40;;;;;;;1.80;1.10;;;18.70;99.90;;;;;;5014131;28;20055;-76
2022/08/13 05:40:27;;;;;;;2.95;1.00;;;18.70;99.90;;;;;;5013503;28;20045;-76
2022/08/13 05:43:10;;;;;;;1.60;1.10;;;18.70;99.90;;;;;;5014179;28;20053;-76
2022/08/13 05:45:38;;;;;;;1.65;0.80;;;18.80;99.90;;;;;;5013302;28;20500;-76
2022/08/13 05:48:19;;;;;;;2.42;0.77;;;18.80;99.90;;;;;;5013037;28;20050;-76
2022/08/13 05:50:55;;;;;;;1.02;0.80;;;18.90;99.90;;;;;;5013722;28;20042;-76
2022/08/13 05:53:22;;;;;;;2.53;1.00;;;18.90;99.90;;;;;;5013281;28;20092;-76
2022/08/13 05:55:53;;;;;;;3.38;1.30;;;18.90;99.90;;;;;;5014023;28;20407;-76
2022/08/13 05:58:39;;;;;;;2.47;0.90;;;18.90;99.90;;;;;;5013219;28;20053;-75
2022/08/13 06:03:55;;;;;;;6.28;1.10;;;18.90;99.90;;;;;;5013588;28;20060;-76
2022/08/13 06:06:42;;;;;;;3.33;1.40;;;19.00;99.90;;;;;;5013716;28;20050;-76
2022/08/13 06:09:13;;;;;;;3.33;1.40;;;18.90;99.90;;;;;;5013793;28;20401;-75
2022/08/13 06:11:49;;;;;;;2.15;1.27;;;19.00;99.90;;;;;;5011087;28;20061;-76
2022/08/13 06:14:36;;;;;;;2.85;1.38;;;19.10;99.90;;;;;;5013605;28;20483;-76
2022/08/13 06:17:05;;;;;;;4.70;1.47;;;19.10;99.90;;;;;;5013595;28;20049;-76
2022/08/13 06:19:43;;;;;;;5.05;1.48;;;19.10;99.90;;;;;;5011487;28;20054;-76
2022/08/13 06:22:19;;;;;;;2.33;1.45;;;19.10;99.90;;;;;;5013776;28;20054;-76
2022/08/13 06:24:47;;;;;;;6.22;1.20;;;19.20;99.90;;;;;;5013570;28;20089;-76
2022/08/13 06:27:24;;;;;;;2.65;1.67;;;19.20;99.90;;;;;;5010454;28;20053;-76
2022/08/13 06:30:18;;;;;;;4.72;1.63;;;19.20;99.90;;;;;;5012930;28;20058;-75
2022/08/13 06:33:01;;;;;;;3.80;2.13;;;19.20;99.90;;;;;;5010901;28;20073;-76
2022/08/13 06:36:09;;;;;;;3.90;1.52;;;19.30;99.90;;;;;;5013034;28;20467;-76
2022/08/13 06:38:42;;;;;;;3.78;1.35;;;19.30;99.90;;;;;;5012180;28;20046;-76
2022/08/13 06:41:21;;;;;;;2.58;1.63;;;19.30;99.90;;;;;;5012932;28;20046;-77
2022/08/13 06:43:52;;;;;;;1.88;1.35;;;19.20;99.90;;;;;;5012904;28;20462;-76
2022/08/13 06:46:29;;;;;;;;;;;19.30;99.90;;;;;;5013173;28;20555;-76
2022/08/13 06:48:58;;;;;;;4.38;1.40;;;19.30;99.90;;;;;;5012005;28;20008;-76
2022/08/13 06:51:29;;;;;;;2.38;1.30;;;19.30;99.90;;;;;;5012536;28;20137;-76
2022/08/13 06:54:03;;;;;;;2.17;1.77;;;19.30;99.90;;;;;;5012847;28;20126;-76
2022/08/13 06:56:52;;;;;;;1.58;1.30;;;19.30;99.90;;;;;;5012952;28;20049;-76
2022/08/13 06:59:39;;;;;;;2.17;1.52;;;19.30;99.90;;;;;;5012631;28;20050;-76
2022/08/13 07:02:29;;;;;;;3.97;1.73;;;19.30;99.90;;;;;;5012311;28;20455;-76
2022/08/13 07:04:58;;;;;;;2.03;1.50;;;19.40;99.90;;;;;;5012802;28;20490;-76
2022/08/13 07:07:26;;;;;;;2.22;1.88;;;19.40;99.90;;;;;;5012092;28;20049;-76
2022/08/13 07:09:54;;;;;;;5.45;2.10;;;19.40;99.90;;;;;;5011949;28;20073;-76
2022/08/13 07:12:24;;;;;;;6.00;2.42;;;19.40;99.90;;;;;;5012170;28;20463;-75
2022/08/13 07:14:51;;;;;;;3.97;2.50;;;19.50;99.90;;;;;;5008628;28;20073;-76
2022/08/13 07:17:27;;;;;;;3.42;2.33;;;19.50;99.90;;;;;;5012023;28;20049;-76
2022/08/13 07:20:03;;;;;;;2.47;2.28;;;19.60;99.90;;;;;;5009401;28;20053;-76
2022/08/13 07:22:49;;;;;;;4.95;2.10;;;19.60;99.90;;;;;;5012010;28;20147;-76
2022/08/13 07:25:37;;;;;;;4.43;2.00;;;19.60;99.90;;;;;;5012166;28;20062;-76
2022/08/13 07:28:25;;;;;;;5.18;1.83;;;19.70;99.90;;;;;;5011576;28;20056;-76
2022/08/13 07:31:14;;;;;;;6.53;2.63;;;19.80;99.90;;;;;;5011173;28;20054;-76
2022/08/13 07:33:49;;;;;;;4.00;2.28;;;19.80;99.90;;;;;;5009522;28;20042;-76
2022/08/13 07:36:33;;;;;;;5.72;2.20;;;19.90;99.90;;;;;;5011953;28;20053;-76
2022/08/13 07:39:03;;;;;;;4.10;2.20;;;19.90;99.90;;;;;;5011522;28;20141;-76
2022/08/13 07:41:36;;;;;;;2.72;2.15;;;19.90;99.90;;;;;;5009508;28;20511;-76
2022/08/13 07:44:24;;;;;;;2.80;1.90;;;20.00;99.90;;;;;;5011616;28;20064;-76
2022/08/13 07:46:53;;;;;;;7.05;2.05;;;20.00;99.90;;;;;;5011015;28;20046;-76
2022/08/13 07:49:23;;;;;;;3.80;2.15;;;20.10;99.90;;;;;;5011220;28;20050;-76
2022/08/13 07:52:10;;;;;;;4.63;2.08;;;20.20;99.90;;;;;;5011707;28;20480;-76
2022/08/13 07:54:37;;;;;;;4.15;2.22;;;20.20;99.90;;;;;;5010834;28;20073;-76
2022/08/13 07:57:04;;;;;;;4.22;2.10;;;20.30;99.90;;;;;;5011405;28;20053;-75
2022/08/13 07:59:31;;;;;;;4.00;2.22;;;20.30;99.90;;;;;;5010647;28;20124;-76
2022/08/13 08:02:18;;;;;;;5.00;2.20;;;20.30;99.90;;;;;;5010869;28;20434;-75
2022/08/13 08:04:52;;;;;;;3.13;2.25;;;20.40;99.90;;;;;;5009228;28;20060;-75
2022/08/13 08:07:21;;;;;;;3.60;2.38;;;20.40;99.90;;;;;;5011503;28;20042;-76
2022/08/13 08:09:50;;;;;;;6.65;2.22;;;20.50;99.90;;;;;;5011394;28;20050;-76
2022/08/13 08:12:32;;;;;;;4.15;2.35;;;20.60;99.90;;;;;;5011580;28;20050;-76
2022/08/13 08:15:00;;;;;;;9.60;2.13;;;20.60;99.90;;;;;;5009686;28;20096;-76
2022/08/13 08:17:31;;;;;;;3.58;2.45;;;20.70;99.90;;;;;;5011591;28;20049;-76
2022/08/13 08:20:21;;;;;;;2.85;1.92;;;20.70;99.90;;;;;;5009653;28;20050;-76
2022/08/13 08:23:10;;;;;;;8.10;3.22;;;20.80;99.90;;;;;;5011075;28;20507;-76
2022/08/13 08:25:41;;;;;;;6.35;3.15;;;20.90;99.90;;;;;;5011434;28;20136;-76
2022/08/13 08:28:30;;;;;;;6.25;2.10;;;21.00;99.90;;;;;;5011151;28;20294;-76
2022/08/13 08:31:06;;;;;;;5.80;2.40;;;21.00;99.90;;;;;;5010116;28;20061;-76
2022/08/13 08:33:58;;;;;;;4.25;2.78;;;21.10;99.90;;;;;;5011016;28;20423;-76
2022/08/13 08:36:27;;;;;;;2.53;2.10;;;21.20;99.90;;;;;;5009391;28;20045;-76
2022/08/13 08:44:54;;;;;;;3.72;1.85;;;21.40;99.90;;;;;;5010969;28;20045;-76
2022/08/13 08:47:28;;;;;;;2.65;1.58;;;21.40;99.90;;;;;;5009476;28;20053;-76
2022/08/13 08:50:16;;;;;;;2.78;1.55;;;21.40;99.90;;;;;;5010627;28;20050;-76
2022/08/13 08:56:04;;;;;;;3.88;1.60;;;21.60;99.90;;;;;;5010604;28;20052;-76
2022/08/13 08:58:41;;;;;;;2.58;1.38;;;21.60;99.90;;;;;;5010977;28;20053;-76
2022/08/13 09:01:10;;;;;;;4.95;1.58;;;21.70;99.90;;;;;;5009229;28;20054;-76
2022/08/13 09:03:42;;;;;;;5.30;1.48;;;21.80;99.90;;;;;;5009111;28;20046;-76
2022/08/13 09:06:26;;;;;;;5.15;1.70;;;21.90;99.90;;;;;;5011090;28;20050;-76
2022/08/13 09:09:13;;;;;;;5.25;1.55;;;21.90;99.90;;;;;;5010666;28;20041;-76
2022/08/13 09:11:45;;;;;;;5.07;1.95;;;22.00;99.90;;;;;;5011740;28;20045;-76
2022/08/13 09:14:20;;;;;;;1.60;1.48;;;22.10;99.90;;;;;;5013353;28;20049;-76
2022/08/13 09:16:49;;;;;;;6.78;1.90;;;22.10;99.90;;;;;;5014627;28;20050;-76
2022/08/13 09:19:18;;;;;;;6.18;1.50;;;22.20;99.90;;;;;;5014141;28;20077;-76
2022/08/13 09:21:59;;;;;;;3.17;1.20;;;22.20;99.90;;;;;;5012512;28;20046;-76
2022/08/13 09:24:26;;;;;;;4.18;1.25;;;22.30;99.90;;;;;;5014089;28;20096;-76
2022/08/13 09:26:53;;;;;;;5.30;1.30;;;22.40;99.90;;;;;;5014389;28;20085;-76
2022/08/13 09:29:25;;;;;;;2.88;1.10;;;22.40;99.90;;;;;;5013995;28;20165;-76
2022/08/13 09:31:58;;;;;;;2.17;1.15;;;22.50;99.90;;;;;;5014273;28;20050;-76
2022/08/13 09:34:28;;;;;;;3.28;1.60;;;22.60;99.90;;;;;;5013927;28;20103;-76
2022/08/13 09:36:57;;;;;;;6.05;1.58;;;22.60;99.90;;;;;;5014163;28;20108;-76
2022/08/13 09:39:32;;;;;;;3.22;1.10;;;22.70;99.90;;;;;;5013438;28;20137;-76
2022/08/13 09:42:18;;;;;;;2.15;1.30;;;22.80;99.90;;;;;;5012189;28;20128;-76
2022/08/13 09:44:56;;;;;;;7.88;1.58;;;22.80;99.90;;;;;;5011822;28;20049;-76
2022/08/13 09:47:24;;;;;;;3.58;1.50;;;22.90;99.90;;;;;;5013607;28;20414;-76
2022/08/13 09:50:10;;;;;;;7.63;1.50;;;22.90;99.90;;;;;;5012754;28;20057;-76
2022/08/13 09:52:37;;;;;;;3.40;1.23;;;22.90;99.90;;;;;;5013636;28;20456;-76
2022/08/13 09:55:05;;;;;;;5.25;1.33;;;23.00;99.90;;;;;;5013638;28;20112;-76
2022/08/13 09:57:51;;;;;;;4.93;1.10;;;23.10;99.90;;;;;;5014117;28;20423;-76
2022/08/13 10:00:21;;;;;;;1.85;1.27;;;23.20;99.90;;;;;;5012889;28;20133;-77
2022/08/13 10:02:59;;;;;;;5.43;1.25;;;23.30;99.90;;;;;;5013501;28;20091;-77
2022/08/13 10:05:34;;;;;;;1.50;1.13;;;23.30;99.90;;;;;;5011325;28;20081;-77
2022/08/13 10:08:06;;;;;;;1.60;1.30;;;23.40;99.90;;;;;;5012832;28;20141;-77
2022/08/13 10:10:33;;;;;;;4.78;1.58;;;23.50;99.90;;;;;;5013334;28;20423;-77
2022/08/13 10:13:02;;;;;;;2.05;1.30;;;23.60;99.90;;;;;;5013110;28;20551;-77
2022/08/13 10:15:30;;;;;;;5.15;1.30;;;23.70;99.90;;;;;;5013158;28;20049;-77
2022/08/13 10:18:02;;;;;;;1.83;1.30;;;23.70;99.90;;;;;;5013522;28;20053;-77
2022/08/13 10:20:40;;;;;;;5.03;1.00;;;23.70;99.90;;;;;;5010994;28;20053;-77
2022/08/13 10:23:10;;;;;;;8.57;1.33;;;23.80;99.90;;;;;;5011628;28;20136;-77
2022/08/13 10:25:37;;;;;;;2.63;1.00;;;23.80;99.90;;;;;;5012946;28;20060;-77
2022/08/13 10:28:27;;;;;;;1.25;1.02;;;23.80;99.90;;;;;;5011854;28;20053;-77
2022/08/13 10:31:00;;;;;;;2.17;1.17;;;23.90;99.90;;;;;;5012687;28;20060;-77
2022/08/13 10:33:47;;;;;;;2.10;1.13;;;24.10;99.90;;;;;;5012694;28;20062;-77
2022/08/13 10:36:17;;;;;;;1.83;1.00;;;24.20;99.90;;;;;;5012829;28;20142;-77
2022/08/13 10:38:43;;;;;;;2.60;1.15;;;24.10;99.90;;;;;;5012148;28;20054;-77
2022/08/13 10:41:19;;;;;;;1.55;0.80;;;24.20;99.90;;;;;;5012841;28;20053;-77
2022/08/13 10:43:47;;;;;;;2.42;1.02;;;24.30;99.90;;;;;;5013200;28;20439;-75
2022/08/13 10:46:24;;;;;;;1.73;1.08;;;24.40;99.90;;;;;;5012571;28;20512;-76
2022/08/13 10:48:55;;;;;;;4.40;1.13;;;24.40;99.90;;;;;;5012564;28;20131;-75
2022/08/13 10:51:30;;;;;;;1.40;1.10;;;24.50;99.90;;;;;;5012402;28;20057;-75
2022/08/13 10:54:10;;;;;;;1.75;1.17;;;24.60;99.90;;;;;;5011742;28;20064;-75
2022/08/13 10:56:56;;;;;;;2.63;0.95;;;24.70;99.90;;;;;;5012538;28;20061;-76
2022/08/13 10:59:25;;;;;;;4.43;1.20;;;24.70;99.90;;;;;;5012116;28;20053;-75
2022/08/13 11:01:52;;;;;;;3.75;1.17;;;24.80;99.90;;;;;;5012139;28;20539;-75
2022/08/13 11:04:19;;;;;;;2.97;1.25;;;24.90;99.90;;;;;;5012147;28;20054;-75
2022/08/13 11:06:55;;;;;;;1.70;1.30;;;24.90;99.90;;;;;;5012244;28;20057;-75
2022/08/13 11:09:26;;;;;;;4.05;1.20;;;24.90;99.90;;;;;;5012009;28;20077;-76
2022/08/13 11:12:02;;;;;;;2.90;0.98;;;25.10;99.90;;;;;;5012074;28;20415;-75
2022/08/13 11:14:29;;;;;;;2.60;0.93;;;25.10;99.90;;;;;;5011894;28;20077;-75
2022/08/13 11:17:07;;;;;;;2.40;1.02;;;25.10;99.90;;;;;;5012188;28;20108;-76
2022/08/13 11:19:54;;;;;;;1.60;1.10;;;25.30;99.90;;;;;;5011692;28;20056;-77
2022/08/13 11:22:28;;;;;;;1.42;1.00;;;25.30;99.50;;;;;;5012089;28;20054;-77
2022/08/13 11:24:58;;;;;;;2.35;0.90;;;25.40;99.60;;;;;;5011952;28;20073;-77
2022/08/13 11:27:36;;;;;;;1.85;1.00;;;25.50;99.90;;;;;;5011748;28;20052;-77
2022/08/13 11:30:19;;;;;;;2.15;1.10;;;25.60;99.10;;;;;;5012122;28;20075;-77
2022/08/13 11:33:04;;;;;;;4.35;1.02;;;25.60;98.80;;;;;;5010829;28;20065;-77
2022/08/13 11:35:38;;;;;;;1.20;1.10;;;25.60;99.20;;;;;;5009731;28;20050;-77
2022/08/13 11:38:06;;;;;;;1.67;1.08;;;25.80;99.30;;;;;;5011881;28;20052;-76
2022/08/13 11:40:35;;;;;;;3.42;1.10;;;25.80;99.30;;;;;;5008971;28;20679;-76
2022/08/13 11:43:05;;;;;;;7.22;1.20;;;25.80;99.10;;;;;;5011941;28;20049;-77
2022/08/13 11:45:38;;;;;;;3.10;0.93;;;25.90;99.50;;;;;;5008967;28;20049;-77
2022/08/13 11:48:12;;;;;;;4.88;0.90;;;26.00;99.20;;;;;;5011426;28;20045;-75
2022/08/13 11:50:55;;;;;;;3.38;1.33;;;26.00;99.30;;;;;;5010988;28;20046;-75
2022/08/13 11:53:23;;;;;;;3.13;1.20;;;26.10;98.90;;;;;;5011619;28;20136;-75
2022/08/13 11:55:51;;;;;;;3.58;1.08;;;26.20;98.50;;;;;;5011593;28;20046;-75
2022/08/13 11:58:27;;;;;;;2.78;0.88;;;26.20;98.50;;;;;;5011248;28;20061;-77
2022/08/13 12:01:16;;;;;;;7.75;1.13;;;26.10;98.90;;;;;;5011496;28;20064;-77
2022/08/13 12:03:43;;;;;;;2.15;1.08;;;26.10;98.90;;;;;;5011292;28;20144;-77
2022/08/13 12:06:30;;;;;;;1.70;1.00;;;26.20;98.60;;;;;;5011158;28;20060;-77
2022/08/13 12:08:57;;;;;;;2.33;1.00;;;26.20;98.60;;;;;;5008467;28;20085;-77
2022/08/13 12:11:43;;;;;;;4.18;1.30;;;26.30;98.90;;;;;;5011145;28;20504;-77
2022/08/13 12:14:30;;;;;;;1.95;0.90;;;26.30;98.60;;;;;;5011243;28;20045;-77
2022/08/13 12:16:58;;;;;;;2.20;1.08;;;26.30;98.10;;;;;;5011171;28;20515;-77
2022/08/13 12:19:27;;;;;;;5.25;1.23;;;26.40;97.60;;;;;;5010886;28;20504;-77
2022/08/13 12:21:54;;;;;;;1.95;1.00;;;26.50;97.80;;;;;;5011096;28;20397;-77
2022/08/13 12:24:21;;;;;;;2.13;0.90;;;26.50;97.90;;;;;;5012259;28;20046;-76
2022/08/13 12:27:00;;;;;;;1.88;1.15;;;26.60;97.60;;;;;;5011917;28;20046;-77
2022/08/13 12:29:31;;;;;;;2.47;1.20;;;26.70;97.30;;;;;;5012321;28;20093;-77
2022/08/13 12:32:15;;;;;;;1.30;0.90;;;26.80;96.60;;;;;;5010741;28;20046;-77
2022/08/13 12:34:45;;;;;;;6.97;1.20;;;26.70;96.80;;;;;;5011053;28;20056;-77
2022/08/13 12:37:19;;;;;;;2.10;1.00;;;26.70;96.40;;;;;;5010836;28;20507;-77
2022/08/13 12:39:53;;;;;;;1.45;0.90;;;26.70;96.70;;;;;;5011183;28;20057;-77
2022/08/13 12:42:23;;;;;;;1.40;0.80;;;26.60;97.00;;;;;;5010881;28;20046;-77
2022/08/13 12:44:54;;;;;;;1.05;0.95;;;26.70;96.80;;;;;;5011218;28;20133;-77
2022/08/13 12:47:40;;;;;;;1.83;0.98;;;26.70;96.90;;;;;;5014901;28;20050;-77
2022/08/13 12:50:17;;;;;;;1.13;1.02;;;26.90;96.40;;;;;;5013250;28;20050;-77
2022/08/13 12:52:48;;;;;;;3.42;1.05;;;26.80;96.70;;;;;;5013905;28;20050;-77
2022/08/13 12:55:16;;;;;;;1.30;1.00;;;27.00;96.50;;;;;;5013259;28;20046;-77
2022/08/13 12:57:51;;;;;;;0.77;0.77;;;27.00;96.20;;;;;;5013994;28;20075;-77
2022/08/13 13:00:31;;;;;;;2.15;0.82;;;27.00;96.00;;;;;;5013162;28;20056;-77
2022/08/13 13:02:59;;;;;;;1.00;0.88;;;27.20;95.90;;;;;;5014779;28;20466;-76
2022/08/13 13:05:32;;;;;;;6.72;1.00;;;27.20;96.40;;;;;;5014496;28;20049;-76
2022/08/13 13:08:26;;;;;;;1.23;1.00;;;27.20;96.10;;;;;;5013022;28;20081;-77
2022/08/13 13:11:08;;;;;;;2.70;0.88;;;27.40;95.60;;;;;;5012932;28;20050;-77
2022/08/13 13:13:40;;;;;;;4.25;0.98;;;27.30;95.90;;;;;;5013822;28;20372;-77
2022/08/13 13:16:23;;;;;;;5.05;0.98;;;27.30;95.60;;;;;;5013491;28;20100;-77
2022/08/13 13:19:07;;;;;;;5.10;1.20;;;27.60;95.30;;;;;;5012747;28;20102;-77
2022/08/13 13:21:46;;;;;;;2.95;1.10;;;27.60;95.70;;;;;;5013513;28;20049;-77
2022/08/13 13:24:16;;;;;;;2.15;0.93;;;27.50;95.80;;;;;;5014326;28;20050;-76
2022/08/13 13:26:52;;;;;;;4.00;0.80;;;27.50;94.90;;;;;;5012959;28;20492;-77
2022/08/13 13:29:31;;;;;;;1.33;0.90;;;27.70;94.80;;;;;;5013476;28;20419;-77
2022/08/13 13:32:13;;;;;;;3.47;1.00;;;27.70;94.40;;;;;;5012317;28;20049;-76
2022/08/13 13:35:00;;;;;;;0.98;0.88;;;27.60;93.90;;;;;;5013402;28;20053;-77
2022/08/13 13:37:42;;;;;;;1.30;0.82;;;27.80;93.10;;;;;;5014284;28;20045;-76
2022/08/13 13:40:29;;;;;;;2.90;0.80;;;27.80;93.90;;;;;;5013046;28;20050;-77
2022/08/13 13:42:57;;;;;;;1.65;1.00;;;27.90;93.90;;;;;;5013623;28;20046;-77
2022/08/13 13:45:44;;;;;;;2.75;0.98;;;27.90;94.50;;;;;;5013859;28;20056;-76
2022/08/13 13:48:24;;;;;;;2.97;0.80;;;28.10;93.00;;;;;;5013682;28;20049;-75
2022/08/13 13:50:53;;;;;;;0.80;0.70;;;28.10;91.80;;;;;;5011659;28;20128;-77